createdAt,value
2019-05-03T00:00:57.626Z,18.17
2019-05-03T00:03:25.243Z,18.77
2019-05-03T00:05:53.195Z,16.90
2019-05-03T00:08:21.762Z,18.10
2019-05-03T00:10:49.182Z,18.00
2019-05-03T00:13:17.596Z,18.40
2019-05-03T00:16:03.130Z,17.87
2019-05-03T00:18:32.730Z,20.50
2019-05-03T00:20:59.503Z,18.00
2019-05-03T00:23:27.880Z,19.40
2019-05-03T00:25:56.305Z,18.73
2019-05-03T00:28:23.917Z,20.70
2019-05-03T00:30:52.291Z,22.13
2019-05-03T00:33:19.940Z,21.00
2019-05-03T00:35:47.552Z,20.60
2019-05-03T00:38:15.165Z,22.27
2019-05-03T00:40:42.827Z,21.37
2019-05-03T00:43:11.604Z,23.27
2019-05-03T00:45:38.065Z,23.40
2019-05-03T00:48:05.715Z,26.37
2019-05-03T00:50:33.330Z,25.60
2019-05-03T00:53:02.303Z,23.07
2019-05-03T00:55:28.599Z,22.20
2019-05-03T00:57:56.220Z,25.55
2019-05-03T01:00:23.829Z,20.93
2019-05-03T01:02:51.817Z,23.63
2019-05-03T01:05:19.096Z,26.00
2019-05-03T01:07:46.712Z,19.80
2019-05-03T01:10:14.361Z,21.07
2019-05-03T01:12:42.534Z,22.57
2019-05-03T01:15:28.386Z,20.47
2019-05-03T01:17:56.005Z,21.73
2019-05-03T01:20:23.620Z,21.60
2019-05-03T01:22:51.880Z,23.48
2019-05-03T01:25:29.186Z,23.20
2019-05-03T01:27:46.507Z,21.23
2019-05-03T01:30:14.201Z,21.07
2019-05-03T01:32:41.894Z,21.60
2019-05-03T01:35:12.152Z,26.48
2019-05-03T01:37:38.614Z,22.33
2019-05-03T01:40:06.225Z,23.07
2019-05-03T01:42:34.604Z,21.30
2019-05-03T01:45:03.507Z,23.53
2019-05-03T01:47:49.946Z,21.23
2019-05-03T01:50:20.313Z,26.57
2019-05-03T01:52:47.929Z,22.37
2019-05-03T01:55:16.057Z,25.43
2019-05-03T01:57:43.190Z,25.97
2019-05-03T02:00:11.767Z,29.20
2019-05-03T02:02:56.530Z,27.87
2019-05-03T02:05:24.144Z,27.57
2019-05-03T02:07:52.519Z,27.20
2019-05-03T02:10:22.599Z,30.30
2019-05-03T02:12:48.538Z,29.93
2019-05-03T02:15:16.152Z,30.93
2019-05-03T02:17:43.795Z,33.38
2019-05-03T02:20:12.580Z,28.77
2019-05-03T02:22:39.368Z,30.57
2019-05-03T02:25:07.013Z,31.27
2019-05-03T02:27:34.628Z,29.50
2019-05-03T02:30:02.977Z,31.63
2019-05-03T02:32:29.889Z,34.67
2019-05-03T02:34:57.507Z,29.90
2019-05-03T02:37:25.113Z,34.77
2019-05-03T02:39:53.198Z,36.17
2019-05-03T02:42:21.138Z,31.23
2019-05-03T02:44:49.508Z,29.90
2019-05-03T02:47:17.917Z,27.57
2019-05-03T02:49:45.683Z,29.07
2019-05-03T02:52:15.112Z,29.40
2019-05-03T02:54:40.794Z,28.97
2019-05-03T02:57:09.159Z,30.93
2019-05-03T02:59:37.544Z,28.57
2019-05-03T03:02:06.538Z,27.73
2019-05-03T03:04:35.303Z,33.97
2019-05-03T03:07:01.178Z,33.77
2019-05-03T03:09:29.221Z,33.78
2019-05-03T03:11:57.589Z,33.27
2019-05-03T03:14:25.841Z,33.57
2019-05-03T03:16:52.836Z,29.47
2019-05-03T03:19:20.510Z,33.77
2019-05-03T03:21:48.887Z,32.97
2019-05-03T03:24:17.470Z,31.03
2019-05-03T03:26:47.328Z,32.83
2019-05-03T03:29:12.520Z,30.53
2019-05-03T03:31:58.058Z,31.40
2019-05-03T03:34:28.345Z,32.57
2019-05-03T03:37:04.385Z,36.07
2019-05-03T03:39:25.717Z,32.30
2019-05-03T03:41:50.541Z,33.03
2019-05-03T03:44:20.961Z,35.08
2019-05-03T03:46:51.566Z,32.03
2019-05-03T03:49:19.179Z,38.78
2019-05-03T03:51:50.785Z,32.67
2019-05-03T03:54:18.436Z,29.37
2019-05-03T03:56:56.139Z,33.17
2019-05-03T03:59:15.386Z,36.23
2019-05-03T04:01:41.302Z,44.43
2019-05-03T04:04:08.902Z,32.07
2019-05-03T04:06:42.470Z,34.07
2019-05-03T04:09:10.109Z,38.73
2019-05-03T04:11:38.487Z,37.07
2019-05-03T04:14:12.630Z,33.73
2019-05-03T04:16:40.284Z,32.00
2019-05-03T04:19:10.723Z,32.57
2019-05-03T04:21:38.335Z,33.50
2019-05-03T04:24:06.285Z,37.83
2019-05-03T04:26:35.764Z,33.07
2019-05-03T04:29:05.096Z,37.90
2019-05-03T04:31:31.189Z,40.33
2019-05-03T04:33:58.857Z,41.80
2019-05-03T04:36:26.500Z,42.27
2019-05-03T04:38:56.161Z,37.73
2019-05-03T04:41:21.753Z,47.80
2019-05-03T04:43:49.362Z,39.63
2019-05-03T04:46:17.053Z,40.47
2019-05-03T04:48:45.434Z,37.90
2019-05-03T04:51:16.572Z,42.13
2019-05-03T04:53:41.509Z,38.73
2019-05-03T04:56:09.123Z,40.73
2019-05-03T04:58:37.490Z,36.20
2019-05-03T05:01:06.274Z,36.40
2019-05-03T05:03:35.845Z,36.77
2019-05-03T05:06:00.590Z,36.20
2019-05-03T05:08:28.988Z,38.43
2019-05-03T05:10:56.578Z,37.13
2019-05-03T05:13:24.997Z,40.10
2019-05-03T05:15:51.794Z,35.83
2019-05-03T05:18:19.373Z,41.45
2019-05-03T05:20:46.961Z,41.70
2019-05-03T05:23:15.617Z,35.17
2019-05-03T05:25:49.395Z,33.67
2019-05-03T05:28:19.787Z,39.13
2019-05-03T05:30:47.376Z,32.50
2019-05-03T05:33:21.530Z,37.42
2019-05-03T05:35:49.173Z,30.00
2019-05-03T05:38:16.765Z,32.63
2019-05-03T05:40:45.091Z,31.97
2019-05-03T05:43:12.004Z,33.87
2019-05-03T05:45:39.589Z,34.83
2019-05-03T05:48:09.885Z,34.77
2019-05-03T05:50:40.449Z,32.00
2019-05-03T05:53:08.034Z,39.73
2019-05-03T05:55:50.821Z,31.17
2019-05-03T05:58:25.749Z,37.83
2019-05-03T06:00:57.128Z,34.13
2019-05-03T06:03:25.307Z,32.33
2019-05-03T06:05:52.305Z,33.13
2019-05-03T06:08:20.811Z,27.67
2019-05-03T06:10:55.361Z,31.73
2019-05-03T06:13:22.262Z,32.38
2019-05-03T06:15:49.895Z,28.40
2019-05-03T06:18:17.483Z,27.50
2019-05-03T06:21:04.648Z,32.83
2019-05-03T06:23:39.999Z,33.00
2019-05-03T06:26:25.940Z,26.47
2019-05-03T06:28:54.490Z,26.87
2019-05-03T06:31:34.404Z,31.97
2019-05-03T06:34:01.206Z,27.43
2019-05-03T06:36:28.804Z,26.43
2019-05-03T06:38:58.502Z,25.00
2019-05-03T06:41:26.098Z,23.67
2019-05-03T06:43:55.238Z,30.00
2019-05-03T06:46:23.556Z,26.57
2019-05-03T06:48:48.951Z,26.00
2019-05-03T06:51:20.023Z,25.83
2019-05-03T06:53:47.608Z,24.52
2019-05-03T06:56:14.716Z,26.40
2019-05-03T06:58:40.127Z,22.93
2019-05-03T07:01:22.696Z,25.30
2019-05-03T07:03:54.783Z,23.13
2019-05-03T07:06:36.194Z,22.20
2019-05-03T07:08:54.960Z,22.80
2019-05-03T07:11:21.579Z,23.53
2019-05-03T07:13:49.217Z,18.97
2019-05-03T07:16:16.801Z,20.02
2019-05-03T07:18:45.423Z,17.87
2019-05-03T07:21:12.793Z,21.17
2019-05-03T07:23:40.384Z,16.97
2019-05-03T07:26:07.973Z,18.10
2019-05-03T07:28:46.334Z,14.77
2019-05-03T07:31:04.805Z,15.67
2019-05-03T07:33:34.723Z,17.58
2019-05-03T07:36:01.455Z,22.57
2019-05-03T07:38:29.045Z,13.93
2019-05-03T07:40:56.631Z,14.20
2019-05-03T07:43:24.997Z,13.77
2019-05-03T07:45:52.587Z,16.90
2019-05-03T07:48:20.179Z,17.12
2019-05-03T07:50:47.817Z,15.33
2019-05-03T07:53:15.402Z,13.03
2019-05-03T07:55:48.665Z,13.50
2019-05-03T07:58:16.298Z,13.97
2019-05-03T08:00:44.585Z,16.33
2019-05-03T08:03:11.476Z,10.73
2019-05-03T08:05:39.357Z,26.07
2019-05-03T08:08:06.944Z,9.43
2019-05-03T08:10:34.639Z,11.53
2019-05-03T08:13:02.175Z,10.17
2019-05-03T08:15:29.759Z,8.60
2019-05-03T08:17:57.367Z,9.67
2019-05-03T08:20:24.994Z,16.97
2019-05-03T08:22:54.609Z,9.47
2019-05-03T08:25:20.148Z,10.50
2019-05-03T08:27:47.773Z,9.33
2019-05-03T08:30:15.347Z,10.43
2019-05-03T08:33:01.087Z,9.07
2019-05-03T08:35:31.514Z,8.67
2019-05-03T08:37:59.089Z,8.67
2019-05-03T08:40:26.702Z,9.07
2019-05-03T08:42:55.000Z,11.27
2019-05-03T08:45:21.857Z,7.53
2019-05-03T08:47:49.474Z,7.90
2019-05-03T08:50:21.411Z,7.10
2019-05-03T08:52:45.181Z,7.93
2019-05-03T08:55:12.287Z,12.43
2019-05-03T08:57:39.864Z,8.88
2019-05-03T09:00:07.437Z,9.67
2019-05-03T09:02:35.089Z,7.53
2019-05-03T09:05:02.635Z,8.07
2019-05-03T09:07:30.210Z,8.07
2019-05-03T09:09:58.494Z,8.57
2019-05-03T09:12:26.067Z,7.60
2019-05-03T09:14:54.687Z,9.23
2019-05-03T09:17:22.067Z,4.40
2019-05-03T09:19:49.643Z,4.70
2019-05-03T09:22:17.227Z,4.23
2019-05-03T09:24:45.521Z,8.67
2019-05-03T09:27:12.420Z,9.27
2019-05-03T09:29:43.444Z,6.80
2019-05-03T09:32:07.614Z,6.87
2019-05-03T09:34:35.828Z,7.27
2019-05-03T09:37:04.775Z,6.00
2019-05-03T09:39:31.026Z,4.93
2019-05-03T09:41:58.616Z,6.50
2019-05-03T09:44:26.186Z,6.67
2019-05-03T09:46:54.988Z,6.87
2019-05-03T09:49:21.382Z,5.93
2019-05-03T09:51:48.957Z,6.47
2019-05-03T09:54:16.626Z,6.80
2019-05-03T09:56:59.187Z,7.17
2019-05-03T09:59:26.749Z,5.00
2019-05-03T10:01:55.102Z,6.63
2019-05-03T10:04:22.669Z,4.63
2019-05-03T10:06:50.293Z,6.70
2019-05-03T10:09:17.871Z,6.87
2019-05-03T10:11:46.238Z,8.30
2019-05-03T10:14:15.420Z,7.32
2019-05-03T10:16:59.079Z,6.63
2019-05-03T10:19:36.631Z,6.50
2019-05-03T10:21:54.521Z,7.57
2019-05-03T10:24:22.096Z,5.57
2019-05-03T10:26:50.116Z,6.73
2019-05-03T10:29:17.681Z,8.18
2019-05-03T10:31:47.722Z,8.40
2019-05-03T10:34:15.565Z,9.93
2019-05-03T10:36:42.931Z,8.23
2019-05-03T10:39:10.515Z,9.00
2019-05-03T10:41:38.495Z,7.60
2019-05-03T10:44:06.163Z,7.93
2019-05-03T10:46:34.562Z,7.17
2019-05-03T10:49:02.103Z,7.07
2019-05-03T10:51:29.679Z,9.93
2019-05-03T10:53:57.256Z,6.13
2019-05-03T10:56:31.131Z,7.90
2019-05-03T10:58:58.715Z,9.77
2019-05-03T11:01:32.072Z,9.60
2019-05-03T11:03:59.694Z,8.90
2019-05-03T11:06:27.270Z,7.57
2019-05-03T11:08:54.841Z,7.23
2019-05-03T11:11:22.537Z,7.80
2019-05-03T11:13:50.520Z,8.10
2019-05-03T11:16:17.890Z,8.57
2019-05-03T11:18:46.277Z,9.40
2019-05-03T11:21:14.412Z,7.07
2019-05-03T11:23:41.439Z,7.47
2019-05-03T11:26:09.108Z,8.43
2019-05-03T11:28:36.688Z,7.80
2019-05-03T11:31:07.100Z,10.23
2019-05-03T11:33:40.781Z,9.33
2019-05-03T11:36:11.221Z,8.63
2019-05-03T11:38:38.796Z,11.33
2019-05-03T11:41:06.445Z,7.17
2019-05-03T11:43:35.025Z,8.73
2019-05-03T11:46:01.603Z,7.03
2019-05-03T11:48:29.272Z,5.87
2019-05-03T11:50:56.821Z,4.43
2019-05-03T11:53:25.162Z,3.73
2019-05-03T11:55:52.410Z,3.40
2019-05-03T11:58:19.999Z,3.57
2019-05-03T12:00:47.572Z,3.10
2019-05-03T12:03:15.637Z,2.67
2019-05-03T12:05:42.779Z,2.47
2019-05-03T12:08:10.348Z,5.00
2019-05-03T12:10:52.980Z,5.47
2019-05-03T12:13:05.605Z,5.37
2019-05-03T12:15:35.094Z,2.60
2019-05-03T12:18:05.531Z,3.20
2019-05-03T12:20:30.047Z,3.70
2019-05-03T12:22:56.860Z,3.47
2019-05-03T12:25:26.140Z,7.00
2019-05-03T12:27:51.441Z,3.03
2019-05-03T12:30:19.026Z,2.00
2019-05-03T12:32:46.653Z,6.47
2019-05-03T12:35:15.356Z,3.20
2019-05-03T12:37:44.681Z,3.27
2019-05-03T12:40:12.307Z,3.37
2019-05-03T12:42:39.888Z,4.73
2019-05-03T12:45:07.521Z,3.43
2019-05-03T12:47:35.966Z,2.07
2019-05-03T12:50:05.361Z,5.33
2019-05-03T12:52:32.219Z,5.40
2019-05-03T12:54:59.963Z,3.57
2019-05-03T12:57:27.549Z,4.23
2019-05-03T12:59:58.754Z,4.35
2019-05-03T13:02:26.366Z,3.27
2019-05-03T13:04:55.398Z,3.13
2019-05-03T13:07:36.341Z,3.43
2019-05-03T13:10:05.294Z,3.07
2019-05-03T13:12:31.536Z,3.83
2019-05-03T13:14:59.187Z,4.37
2019-05-03T13:17:35.444Z,3.33
2019-05-03T13:20:11.621Z,7.80
2019-05-03T13:22:39.195Z,4.80
2019-05-03T13:25:06.773Z,3.90
2019-05-03T13:27:34.999Z,3.60
2019-05-03T13:30:02.464Z,7.13
2019-05-03T13:32:30.034Z,2.40
2019-05-03T13:34:57.654Z,2.77
2019-05-03T13:37:25.453Z,12.07
2019-05-03T13:39:52.817Z,5.43
2019-05-03T13:42:21.814Z,4.23
2019-05-03T13:44:49.390Z,4.17
2019-05-03T13:47:16.966Z,3.93
2019-05-03T13:49:44.848Z,5.37
2019-05-03T13:52:14.440Z,5.20
2019-05-03T13:54:40.544Z,3.93
2019-05-03T13:57:08.190Z,3.53
2019-05-03T13:59:35.763Z,9.53
2019-05-03T14:02:12.526Z,3.80
2019-05-03T14:04:31.381Z,3.87
2019-05-03T14:06:58.961Z,2.90
2019-05-03T14:09:26.543Z,3.57
2019-05-03T14:11:55.308Z,5.18
2019-05-03T14:14:21.744Z,7.97
2019-05-03T14:16:49.317Z,3.60
2019-05-03T14:19:16.952Z,6.47
2019-05-03T14:21:44.532Z,4.97
2019-05-03T14:24:12.192Z,5.53
2019-05-03T14:26:39.762Z,2.07
2019-05-03T14:29:07.350Z,5.10
2019-05-03T14:31:35.693Z,4.40
2019-05-03T14:34:05.740Z,5.13
2019-05-03T14:36:30.908Z,6.27
2019-05-03T14:38:58.485Z,3.93
2019-05-03T14:41:26.877Z,7.90
2019-05-03T14:43:55.681Z,5.47
2019-05-03T14:46:31.657Z,9.57
2019-05-03T14:48:49.704Z,5.57
2019-05-03T14:51:17.284Z,4.70
2019-05-03T14:53:45.309Z,5.93
2019-05-03T14:56:15.395Z,5.17
2019-05-03T14:59:00.845Z,3.30
2019-05-03T15:01:30.898Z,2.60
2019-05-03T15:03:58.470Z,2.63
2019-05-03T15:06:26.057Z,3.07
2019-05-03T15:08:54.744Z,3.40
2019-05-03T15:11:21.250Z,3.80
2019-05-03T15:13:48.830Z,2.30
2019-05-03T15:16:16.458Z,3.70
2019-05-03T15:18:45.413Z,2.37
2019-05-03T15:21:11.623Z,1.77
2019-05-03T15:23:39.588Z,2.78
2019-05-03T15:26:07.165Z,2.40
2019-05-03T15:28:35.574Z,2.63
2019-05-03T15:31:04.434Z,44.40
2019-05-03T15:33:29.944Z,2.13
2019-05-03T15:35:57.522Z,1.90
2019-05-03T15:38:25.979Z,2.13
2019-05-03T15:40:54.730Z,5.53
2019-05-03T15:43:28.545Z,4.97
2019-05-03T15:46:10.190Z,4.93
2019-05-03T15:48:41.421Z,6.10
2019-05-03T15:51:09.023Z,4.30
2019-05-03T15:53:36.676Z,3.70
2019-05-03T15:56:05.413Z,3.80
2019-05-03T15:58:31.828Z,4.70
2019-05-03T16:01:00.635Z,4.10
2019-05-03T16:03:28.207Z,3.67
2019-05-03T16:05:55.833Z,2.50
2019-05-03T16:08:24.770Z,3.60
2019-05-03T16:10:50.989Z,3.63
2019-05-03T16:13:18.562Z,5.23
2019-05-03T16:15:46.226Z,3.17
2019-05-03T16:18:14.866Z,4.57
2019-05-03T16:20:41.398Z,4.10
2019-05-03T16:23:09.054Z,4.27
2019-05-03T16:25:36.627Z,3.73
2019-05-03T16:28:07.111Z,2.87
2019-05-03T16:30:38.157Z,6.40
2019-05-03T16:33:06.504Z,4.20
2019-05-03T16:35:34.940Z,7.30
2019-05-03T16:38:01.711Z,6.10
2019-05-03T16:40:29.290Z,7.82
2019-05-03T16:42:56.870Z,8.23
2019-05-03T16:45:25.617Z,6.43
2019-05-03T16:47:52.063Z,8.00
2019-05-03T16:50:19.645Z,7.87
2019-05-03T16:52:47.337Z,6.03
2019-05-03T16:55:16.392Z,6.73
2019-05-03T16:57:44.337Z,8.53
2019-05-03T17:00:10.887Z,8.53
2019-05-03T17:02:38.472Z,6.27
2019-05-03T17:05:09.010Z,6.17
2019-05-03T17:07:36.661Z,10.87
2019-05-03T17:10:04.900Z,7.30
2019-05-03T17:12:31.845Z,6.80
2019-05-03T17:14:59.811Z,8.47
2019-05-03T17:17:27.354Z,5.63
2019-05-03T17:19:55.193Z,8.45
2019-05-03T17:22:22.548Z,8.20
2019-05-03T17:24:51.699Z,7.47
2019-05-03T17:27:17.705Z,9.17
2019-05-03T17:29:45.335Z,6.50
2019-05-03T17:32:12.911Z,8.27
2019-05-03T17:34:40.489Z,8.20
2019-05-03T17:37:08.115Z,6.47
2019-05-03T17:39:38.362Z,6.13
2019-05-03T17:42:25.341Z,9.70
2019-05-03T17:44:54.484Z,11.37
2019-05-03T17:47:20.048Z,9.23
2019-05-03T17:49:47.671Z,8.57
2019-05-03T17:52:15.277Z,12.33
2019-05-03T17:54:44.783Z,8.83
2019-05-03T17:57:15.019Z,10.90
2019-05-03T17:59:49.968Z,8.90
2019-05-03T18:02:23.146Z,11.60
2019-05-03T18:04:54.919Z,10.53
2019-05-03T18:07:30.731Z,10.18
2019-05-03T18:09:58.315Z,11.73
2019-05-03T18:12:25.897Z,9.93
2019-05-03T18:14:55.333Z,8.00
2019-05-03T18:17:40.950Z,9.00
2019-05-03T18:20:09.274Z,8.87
2019-05-03T18:22:36.873Z,9.03
2019-05-03T18:25:05.033Z,9.70
2019-05-03T18:27:32.070Z,6.93
2019-05-03T18:29:59.651Z,6.63
2019-05-03T18:32:27.233Z,12.63
2019-05-03T18:34:54.995Z,11.07
2019-05-03T18:37:25.785Z,9.00
2019-05-03T18:39:52.196Z,9.47
2019-05-03T18:42:30.695Z,8.87
2019-05-03T18:44:56.398Z,8.60
2019-05-03T18:47:25.160Z,7.60
2019-05-03T18:49:51.909Z,9.67
2019-05-03T18:52:19.499Z,9.23
2019-05-03T18:54:47.078Z,11.05
2019-05-03T18:57:15.603Z,9.90
2019-05-03T18:59:42.280Z,9.63
2019-05-03T19:02:09.860Z,9.53
2019-05-03T19:04:38.024Z,11.13
2019-05-03T19:07:07.206Z,13.07
2019-05-03T19:09:47.383Z,32.13
2019-05-03T19:12:15.425Z,14.37
2019-05-03T19:14:42.543Z,12.63
2019-05-03T19:17:28.206Z,20.57
2019-05-03T19:19:55.795Z,17.83
2019-05-03T19:22:24.978Z,13.90
2019-05-03T19:24:51.012Z,15.00
2019-05-03T19:27:18.588Z,11.87
2019-05-03T19:29:46.943Z,8.93
2019-05-03T19:32:15.007Z,10.87
2019-05-03T19:34:50.120Z,13.57
2019-05-03T19:37:09.719Z,9.73
2019-05-03T19:39:37.363Z,10.10
2019-05-03T19:42:04.935Z,11.05
2019-05-03T19:44:32.516Z,8.97
2019-05-03T19:47:00.493Z,9.80
2019-05-03T19:49:28.094Z,10.82
2019-05-03T19:51:55.684Z,10.70
2019-05-03T19:54:23.342Z,9.80
2019-05-03T19:56:50.924Z,10.03
2019-05-03T19:59:36.368Z,10.20
2019-05-03T20:02:04.537Z,8.90
2019-05-03T20:04:40.533Z,10.30
2019-05-03T20:07:26.111Z,9.37
2019-05-03T20:09:54.370Z,10.93
2019-05-03T20:12:21.267Z,11.30
2019-05-03T20:14:48.897Z,10.40
2019-05-03T20:17:16.474Z,12.57
2019-05-03T20:19:45.196Z,12.23
2019-05-03T20:22:12.026Z,13.13
2019-05-03T20:24:39.610Z,13.13
2019-05-03T20:27:07.203Z,10.67
2019-05-03T20:29:34.824Z,11.43
2019-05-03T20:32:02.409Z,11.20
2019-05-03T20:34:29.999Z,12.10
2019-05-03T20:36:57.622Z,12.43
2019-05-03T20:39:25.536Z,16.90
2019-05-03T20:41:54.875Z,15.23
2019-05-03T20:44:24.879Z,14.43
2019-05-03T20:47:09.521Z,12.93
2019-05-03T20:49:37.139Z,13.50
2019-05-03T20:52:04.731Z,13.75
2019-05-03T20:54:32.303Z,12.63
2019-05-03T20:56:59.922Z,11.20
2019-05-03T20:59:27.514Z,13.00
2019-05-03T21:01:55.095Z,13.93
2019-05-03T21:04:24.575Z,11.90
2019-05-03T21:06:50.337Z,12.93
2019-05-03T21:09:17.886Z,12.43
2019-05-03T21:11:45.518Z,14.00
2019-05-03T21:14:15.281Z,11.80
2019-05-03T21:16:46.460Z,11.70
2019-05-03T21:19:20.079Z,15.03
2019-05-03T21:21:47.663Z,11.20
2019-05-03T21:24:26.200Z,11.47
2019-05-03T21:26:54.701Z,11.93
2019-05-03T21:29:20.400Z,11.53
2019-05-03T21:31:48.061Z,12.15
2019-05-03T21:34:15.635Z,10.70
2019-05-03T21:36:45.195Z,11.20
2019-05-03T21:39:11.608Z,13.53
2019-05-03T21:41:39.184Z,13.47
2019-05-03T21:44:06.760Z,13.10
2019-05-03T21:46:34.382Z,13.43
2019-05-03T21:49:04.374Z,11.97
2019-05-03T21:51:30.300Z,13.67
2019-05-03T21:53:57.932Z,10.87
2019-05-03T21:56:25.515Z,11.30
2019-05-03T21:58:55.140Z,11.50
2019-05-03T22:01:21.963Z,12.23
2019-05-03T22:03:49.550Z,16.53
2019-05-03T22:06:17.894Z,16.80
2019-05-03T22:08:45.878Z,12.13
2019-05-03T22:11:14.829Z,13.62
2019-05-03T22:13:41.048Z,11.97
2019-05-03T22:16:15.499Z,14.60
2019-05-03T22:18:41.855Z,12.67
2019-05-03T22:21:09.439Z,14.17
2019-05-03T22:23:45.286Z,13.60
2019-05-03T22:26:11.096Z,13.53
2019-05-03T22:28:38.670Z,10.70
2019-05-03T22:31:07.055Z,16.48
2019-05-03T22:33:35.402Z,13.13
2019-05-03T22:36:08.712Z,16.62
2019-05-03T22:38:31.045Z,14.48
2019-05-03T22:40:58.627Z,14.30
2019-05-03T22:43:26.974Z,14.00
2019-05-03T22:45:55.064Z,12.93
2019-05-03T22:48:22.671Z,15.20
2019-05-03T22:50:50.261Z,14.10
2019-05-03T22:53:17.862Z,13.27
2019-05-03T22:55:45.438Z,15.73
2019-05-03T22:58:13.018Z,12.90
2019-05-03T23:00:40.843Z,12.63
2019-05-03T23:03:08.442Z,12.27
2019-05-03T23:05:37.264Z,14.23
2019-05-03T23:08:05.468Z,16.87
2019-05-03T23:10:31.608Z,15.57
2019-05-03T23:12:59.196Z,14.30
2019-05-03T23:15:26.810Z,14.77
2019-05-03T23:17:54.607Z,12.70
2019-05-03T23:20:27.939Z,15.00
2019-05-03T23:22:55.551Z,13.17
2019-05-03T23:25:24.870Z,14.77
2019-05-03T23:27:51.477Z,12.73
2019-05-03T23:30:19.132Z,14.03
2019-05-03T23:32:46.707Z,13.63
2019-05-03T23:35:14.289Z,12.87
2019-05-03T23:37:44.893Z,15.82
2019-05-03T23:40:10.537Z,12.33
2019-05-03T23:42:38.886Z,17.48
2019-05-03T23:45:06.508Z,13.50
2019-05-03T23:47:36.902Z,12.83
2019-05-03T23:50:07.806Z,14.17
2019-05-03T23:52:35.542Z,16.47
2019-05-03T23:55:05.781Z,16.37
2019-05-03T23:57:31.362Z,13.90
2019-05-03T23:59:59.742Z,13.50
